Time;durP1;ratioP1;P1;durP2;ratioP2;P2;SDS_P1;SDS_P2;PMS_P1;PMS_P2;Temp;Humidity;BMP_temperature;BMP_pressure;BME280_temperature;BME280_humidity;BME280_pressure;Samples;Min_cycle;Max_cycle;Signal;HPM_P1;HPM_P2
2021/10/03 05:19:32;;;;;;;;;;;11.40;99.90;;;;;;5417478;23;19927;-86
2021/10/03 05:21:59;;;;;;;;;;;11.40;99.90;;;;;;4934348;29;20383;-86
2021/10/03 05:24:26;;;;;;;;;;;11.40;99.90;;;;;;4934945;29;19923;-86
2021/10/03 05:26:53;;;;;;;;;;;11.40;99.90;;;;;;4919197;29;19928;-86
2021/10/03 05:29:20;;;;;;;;;;;11.40;99.90;;;;;;4935020;29;19986;-86
2021/10/03 05:31:47;;;;;;;;;;;11.40;99.90;;;;;;4935917;29;20005;-86
2021/10/03 05:34:14;;;;;;;;;;;11.40;99.90;;;;;;4934058;29;20414;-85
2021/10/03 05:36:40;;;;;;;;;;;11.30;99.90;;;;;;4935316;29;19923;-86
2021/10/03 06:00:39;;;;;;;;;;;11.00;99.90;;;;;;5832823;23;19923;-86
2021/10/03 06:03:06;;;;;;;;;;;11.00;99.90;;;;;;4915814;29;19930;-86
2021/10/03 06:05:33;;;;;;;;;;;10.90;99.90;;;;;;4915808;29;19927;-87
2021/10/03 06:08:00;;;;;;;;;;;10.90;99.90;;;;;;4898575;29;19931;-87
2021/10/03 06:10:27;;;;;;;;;;;10.80;99.90;;;;;;4898137;29;19927;-86
2021/10/03 06:12:55;;;;;;;;;;;10.80;99.90;;;;;;4898811;29;19979;-87
2021/10/03 06:15:23;;;;;;;;;;;10.80;99.90;;;;;;4904650;29;19927;-87
2021/10/03 06:17:50;;;;;;;;;;;10.80;99.90;;;;;;4917218;29;19955;-87
2021/10/03 06:20:17;;;;;;;;;;;10.70;99.90;;;;;;4910441;29;19978;-87
2021/10/03 06:22:45;;;;;;;;;;;10.70;99.90;;;;;;4882068;29;19975;-87
2021/10/03 06:25:13;;;;;;;;;;;10.60;99.90;;;;;;4898557;29;19974;-88
2021/10/03 06:27:40;;;;;;;;;;;10.60;99.90;;;;;;4882489;29;19979;-87
2021/10/03 06:30:08;;;;;;;;;;;10.60;99.90;;;;;;4898009;29;20463;-86
2021/10/03 06:32:35;;;;;;;;;;;10.60;99.90;;;;;;4898423;29;19923;-87
2021/10/03 06:35:01;;;;;;;;;;;10.60;99.90;;;;;;4898253;29;19923;-87
2021/10/03 06:37:28;;;;;;;;;;;10.60;99.90;;;;;;4881555;29;19975;-88
2021/10/03 06:39:55;;;;;;;;;;;10.60;99.90;;;;;;4913372;29;19927;-87
2021/10/03 06:42:22;;;;;;;;;;;10.60;99.90;;;;;;4916199;29;19947;-88
2021/10/03 06:44:49;;;;;;;;;;;10.60;99.90;;;;;;4900444;29;20348;-88
2021/10/03 06:47:15;;;;;;;;;;;10.60;99.90;;;;;;4899822;29;19923;-88
2021/10/03 06:49:42;;;;;;;;;;;10.60;99.90;;;;;;4900421;29;19923;-87
2021/10/03 06:52:10;;;;;;;;;;;10.60;99.90;;;;;;4900078;29;19923;-87
2021/10/03 06:54:37;;;;;;;;;;;10.60;99.90;;;;;;4900269;29;19927;-87
2021/10/03 06:57:04;;;;;;;;;;;10.70;99.90;;;;;;4916413;29;20630;-87
2021/10/03 06:59:31;;;;;;;;;;;10.70;99.90;;;;;;4916956;29;19927;-88
2021/10/03 07:02:00;;;;;;;;;;;10.70;99.90;;;;;;4901651;29;20462;-87
2021/10/03 07:04:30;;;;;;;;;;;10.70;99.90;;;;;;4915396;29;19923;-87
2021/10/03 07:06:57;;;;;;;;;;;10.70;99.90;;;;;;4899815;29;19978;-86
2021/10/03 07:09:25;;;;;;;;;;;10.70;99.90;;;;;;4899227;29;19935;-86
2021/10/03 07:11:52;;;;;;;;;;;10.70;99.90;;;;;;4916545;29;19923;-85
2021/10/03 07:14:19;;;;;;;;;;;10.70;99.90;;;;;;4899589;29;19978;-86
2021/10/03 07:16:46;;;;;;;;;;;10.80;99.90;;;;;;4915819;29;19982;-86
2021/10/03 07:19:12;;;;;;;;;;;10.80;99.90;;;;;;4898900;29;19923;-86
2021/10/03 07:21:39;;;;;;;;;;;10.80;99.90;;;;;;4916299;29;19987;-86
2021/10/03 07:24:06;;;;;;;;;;;10.90;99.90;;;;;;4915416;29;19958;-84
2021/10/03 07:26:33;;;;;;;;;;;10.90;99.90;;;;;;4915701;29;19927;-85
2021/10/03 07:29:00;;;;;;;;;;;11.00;99.90;;;;;;4916375;29;19927;-87
2021/10/03 07:31:27;;;;;;;;;;;11.00;99.90;;;;;;4915495;29;19931;-86
2021/10/03 07:33:53;;;;;;;;;;;11.10;99.90;;;;;;4898612;29;19923;-87
2021/10/03 07:36:20;;;;;;;;;;;11.20;99.90;;;;;;4914574;29;20443;-88
2021/10/03 07:38:47;;;;;;;;;;;11.20;99.90;;;;;;4915744;29;19935;-86
2021/10/03 07:41:14;;;;;;;;;;;11.20;99.90;;;;;;4898147;29;19948;-86
2021/10/03 07:43:43;;;;;;;;;;;11.10;99.90;;;;;;4898019;29;20001;-84
2021/10/03 07:46:10;;;;;;;;;;;11.20;99.90;;;;;;4915140;29;19930;-87
2021/10/03 07:48:37;;;;;;;;;;;11.20;99.90;;;;;;4898225;29;19955;-86
2021/10/03 07:51:05;;;;;;;;;;;11.30;99.90;;;;;;4913555;29;19987;-83
2021/10/03 07:53:32;;;;;;;;;;;11.40;99.90;;;;;;4916014;29;19975;-87
2021/10/03 07:55:58;;;;;;;;;;;11.50;99.90;;;;;;4897937;29;19923;-86
2021/10/03 07:58:25;;;;;;;;;;;11.50;99.90;;;;;;4914702;29;20248;-86
2021/10/03 08:00:52;;;;;;;;;;;11.60;99.90;;;;;;4914206;29;19927;-85
2021/10/03 08:03:20;;;;;;;;;;;11.70;99.90;;;;;;4896969;29;20303;-86
2021/10/03 08:05:47;;;;;;;;;;;11.80;99.90;;;;;;4915087;29;19927;-89
2021/10/03 08:08:14;;;;;;;;;;;12.00;99.90;;;;;;4913226;29;19923;-86
2021/10/03 08:10:40;;;;;;;;;;;12.10;99.90;;;;;;4898447;29;19923;-86
2021/10/03 08:13:08;;;;;;;;;;;12.30;99.90;;;;;;4914799;29;20287;-85
2021/10/03 08:15:35;;;;;;;;;;;12.50;99.90;;;;;;4898171;29;19931;-85
2021/10/03 08:18:04;;;;;;;;;;;12.70;99.90;;;;;;4918104;29;19923;-86
2021/10/03 08:20:32;;;;;;;;;;;12.90;99.90;;;;;;4917962;29;19923;-83
2021/10/03 08:22:59;;;;;;;;;;;13.10;99.90;;;;;;4914824;29;19924;-88
2021/10/03 08:25:26;;;;;;;;;;;13.30;99.90;;;;;;4914565;29;19958;-90
2021/10/03 08:27:53;;;;;;;;;;;13.40;99.90;;;;;;4919190;29;20364;-89
2021/10/03 08:30:20;;;;;;;;;;;13.30;99.90;;;;;;4901530;29;19999;-90
2021/10/03 08:32:47;;;;;;;;;;;13.20;99.90;;;;;;4918283;29;19923;-88
2021/10/03 08:35:14;;;;;;;;;;;13.10;99.90;;;;;;4918118;29;19923;-88
2021/10/03 08:37:42;;;;;;;;;;;13.00;99.90;;;;;;4901750;29;19974;-88
2021/10/03 08:40:23;;;;;;;;;;;;;;;;;;;;;
2021/10/03 08:42:53;;;;;;;;;;;12.70;99.90;;;;;;4914478;29;19923;-89
2021/10/03 08:45:20;;;;;;;;;;;12.70;99.90;;;;;;4890546;29;20439;-88
2021/10/03 08:47:47;;;;;;;;;;;12.60;99.90;;;;;;4899405;29;20018;-90
2021/10/03 08:50:15;;;;;;;;;;;12.60;99.90;;;;;;4897734;29;19934;-89
2021/10/03 08:52:43;;;;;;;;;;;12.60;99.90;;;;;;4898196;29;19927;-88
2021/10/03 08:55:11;;;;;;;;;;;12.60;99.90;;;;;;4895006;29;19997;-88
2021/10/03 08:57:38;;;;;;;;;;;12.70;99.90;;;;;;4889944;29;19927;-87
2021/10/03 09:00:07;;;;;;;;;;;12.90;99.90;;;;;;4895046;29;19992;-88
2021/10/03 09:02:52;;;;;;;;;;;13.00;99.90;;;;;;4891666;29;19927;-88
2021/10/03 09:05:19;;;;;;;;;;;13.10;99.90;;;;;;4895362;29;19926;-88
2021/10/03 09:08:03;;;;;;;;;;;13.30;99.90;;;;;;4897492;29;20384;-86
2021/10/03 09:10:46;;;;;;;;;;;13.40;99.90;;;;;;4881630;29;20420;-86
2021/10/03 09:13:14;;;;;;;;;;;13.50;99.90;;;;;;4914388;29;19923;-87
2021/10/03 09:15:41;;;;;;;;;;;13.70;99.90;;;;;;4888916;29;19923;-88
2021/10/03 09:18:08;;;;;;;;;;;13.80;99.90;;;;;;4893095;29;19934;-90
2021/10/03 09:20:36;;;;;;;;;;;13.90;99.90;;;;;;4898491;29;19927;-90
2021/10/03 09:23:03;;;;;;;;;;;14.00;99.90;;;;;;4896938;29;19930;-91
2021/10/03 09:25:31;;;;;;;;;;;14.10;99.90;;;;;;4897154;29;19923;-89
2021/10/03 09:27:57;;;;;;;;;;;14.20;99.90;;;;;;4914655;29;19927;-86
2021/10/03 09:30:24;;;;;;;;;;;14.30;99.90;;;;;;4889714;29;20360;-89
2021/10/03 09:32:56;;;;;;;;;;;14.40;99.90;;;;;;4915290;29;20364;-87
2021/10/03 09:35:26;;;;;;;;;;;14.50;99.90;;;;;;4897772;29;19922;-87
2021/10/03 09:37:53;;;;;;;;;;;14.60;99.90;;;;;;4897317;29;19934;-89
2021/10/03 09:40:20;;;;;;;;;;;14.70;99.90;;;;;;4910779;29;19939;-88
2021/10/03 09:43:02;;;;;;;;;;;14.70;99.90;;;;;;4897108;29;19927;-87
2021/10/03 09:45:29;;;;;;;;;;;14.80;99.90;;;;;;4909674;29;19923;-88
2021/10/03 09:48:01;;;;;;;;;;;14.80;99.90;;;;;;4911774;29;20031;-88
2021/10/03 09:50:28;;;;;;;;;;;14.90;99.90;;;;;;4893426;29;19927;-89
2021/10/03 09:52:55;;;;;;;;;;;14.90;99.90;;;;;;4896586;29;19933;-87
2021/10/03 09:55:25;;;;;;;;;;;15.00;99.90;;;;;;4912965;29;19923;-86
2021/10/03 09:57:55;;;;;;;;;;;15.00;99.90;;;;;;4914545;29;19999;-88
2021/10/03 10:00:26;;;;;;;;;;;15.00;99.90;;;;;;4891539;29;19923;-87
2021/10/03 10:02:55;;;;;;;;;;;15.10;99.90;;;;;;4911134;29;20304;-90
2021/10/03 10:05:26;;;;;;;;;;;15.10;99.90;;;;;;4911949;29;19927;-86
2021/10/03 10:07:53;;;;;;;;;;;15.20;99.90;;;;;;4908556;29;20336;-88
2021/10/03 10:10:21;;;;;;;;;;;15.30;99.90;;;;;;4892328;29;19924;-84
2021/10/03 10:12:54;;;;;;;;;;;15.30;99.90;;;;;;4913708;29;19931;-88
2021/10/03 10:15:22;;;;;;;;;;;15.40;99.90;;;;;;4910113;29;19927;-86
2021/10/03 10:17:49;;;;;;;;;;;15.40;99.90;;;;;;4910763;29;20285;-84
2021/10/03 10:20:16;;;;;;;;;;;15.50;99.90;;;;;;4871732;29;20811;-83
2021/10/03 10:22:55;;;;;;;;;;;15.60;99.90;;;;;;4908050;29;19933;-84
2021/10/03 10:25:41;;;;;;;;;;;15.50;99.90;;;;;;4907073;29;19930;-85
2021/10/03 10:28:14;;;;;;;;;;;15.50;99.90;;;;;;4910386;29;19930;-87
2021/10/03 10:30:59;;;;;;;;;;;15.60;99.90;;;;;;4901593;29;19924;-87
2021/10/03 10:33:26;;;;;;;;;;;15.60;99.90;;;;;;4897070;29;19927;-84
2021/10/03 10:36:11;;;;;;;;;;;15.70;99.90;;;;;;4894400;29;20384;-86
2021/10/03 10:38:40;;;;;;;;;;;15.80;99.90;;;;;;4893123;29;19934;-84
2021/10/03 10:41:30;;;;;;;;;;;15.90;99.90;;;;;;4909786;29;20467;-85
2021/10/03 10:44:16;;;;;;;;;;;15.90;99.90;;;;;;4887613;29;19926;-91
2021/10/03 10:46:44;;;;;;;;;;;15.90;99.90;;;;;;4903592;29;19934;-87
2021/10/03 10:49:30;;;;;;;;;;;15.90;99.90;;;;;;4912033;29;19923;-86
2021/10/03 10:52:20;;;;;;;;;;;15.90;99.90;;;;;;4909813;29;20782;-84
2021/10/03 10:55:00;;;;;;;;;;;15.90;99.90;;;;;;4884838;29;19924;-86
2021/10/03 10:57:27;;;;;;;;;;;16.00;99.90;;;;;;4908366;29;19931;-83
2021/10/03 11:00:14;;;;;;;;;;;15.90;99.90;;;;;;4907043;29;19975;-84
2021/10/03 11:02:48;;;;;;;;;;;15.90;99.90;;;;;;4907627;29;19934;-84
2021/10/03 11:05:48;;;;;;;;;;;16.00;99.90;;;;;;4898885;29;19928;-82
2021/10/03 11:08:17;;;;;;;;;;;16.10;99.90;;;;;;4904680;29;19927;-86
2021/10/03 11:10:59;;;;;;;;;;;16.10;99.90;;;;;;4896741;29;19923;-86
2021/10/03 11:13:39;;;;;;;;;;;16.10;99.90;;;;;;4910294;29;19926;-86
2021/10/03 11:16:19;;;;;;;;;;;16.20;99.90;;;;;;4900028;29;19923;-85
2021/10/03 11:18:51;;;;;;;;;;;16.20;99.90;;;;;;4894592;29;19926;-87
2021/10/03 11:21:29;;;;;;;;;;;16.30;99.90;;;;;;4894563;29;20443;-86
2021/10/03 11:23:57;;;;;;;;;;;16.30;99.90;;;;;;4897819;29;20392;-85
2021/10/03 11:26:24;;;;;;;;;;;16.20;99.90;;;;;;4896512;29;22356;-85
2021/10/03 11:28:52;;;;;;;;;;;16.20;99.90;;;;;;4897104;29;20013;-85
2021/10/03 11:31:37;;;;;;;;;;;16.20;99.90;;;;;;4900649;29;19975;-86
2021/10/03 11:34:05;;;;;;;;;;;16.20;99.90;;;;;;4899581;29;19991;-86
2021/10/03 11:36:33;;;;;;;;;;;16.30;99.90;;;;;;4911373;29;19981;-83
2021/10/03 11:39:00;;;;;;;;;;;16.30;99.90;;;;;;4910755;29;19931;-85
2021/10/03 11:41:27;;;;;;;;;;;16.40;99.90;;;;;;4905336;29;20009;-83
2021/10/03 11:43:54;;;;;;;;;;;16.30;99.90;;;;;;4908625;29;19923;-85
2021/10/03 11:46:20;;;;;;;;;;;16.40;99.90;;;;;;4909815;29;20447;-84
2021/10/03 11:48:51;;;;;;;;;;;16.40;99.90;;;;;;4907671;29;20359;-83
2021/10/03 11:51:17;;;;;;;;;;;16.40;99.90;;;;;;4909475;29;19981;-85
2021/10/03 11:53:47;;;;;;;;;;;16.40;99.90;;;;;;4912984;29;19966;-82
2021/10/03 11:56:15;;;;;;;;;;;16.40;99.90;;;;;;4912730;29;20344;-84
2021/10/03 11:58:43;;;;;;;;;;;16.40;99.90;;;;;;4899077;29;19950;-83
2021/10/03 12:01:10;;;;;;;;;;;16.50;99.90;;;;;;4911996;29;19975;-85
2021/10/03 12:03:47;;;;;;;;;;;16.60;99.90;;;;;;4913916;29;19926;-85
2021/10/03 12:06:16;;;;;;;;;;;16.60;99.90;;;;;;4910850;29;20013;-84
2021/10/03 12:08:44;;;;;;;;;;;16.60;99.90;;;;;;4912688;29;20368;-85
2021/10/03 12:11:11;;;;;;;;;;;16.60;99.90;;;;;;4891606;29;19927;-85
2021/10/03 12:13:38;;;;;;;;;;;16.70;99.90;;;;;;4912970;29;19927;-86
2021/10/03 12:16:16;;;;;;;;;;;16.70;99.90;;;;;;4910956;29;20277;-82
2021/10/03 12:18:44;;;;;;;;;;;16.80;99.90;;;;;;4896187;29;19995;-84
2021/10/03 12:21:13;;;;;;;;;;;16.90;99.90;;;;;;4890688;29;20361;-85
2021/10/03 12:23:40;;;;;;;;;;;17.00;99.90;;;;;;4895614;29;19927;-85
2021/10/03 12:26:17;;;;;;;;;;;17.00;99.90;;;;;;4908567;29;20447;-85
2021/10/03 12:28:50;;;;;;;;;;;17.10;99.90;;;;;;4913197;29;19923;-86
2021/10/03 12:31:33;;;;;;;;;;;17.00;99.90;;;;;;4910284;29;20010;-85
2021/10/03 12:34:00;;;;;;;;;;;17.00;99.90;;;;;;4896622;29;19931;-85
2021/10/03 12:36:27;;;;;;;;;;;17.10;99.90;;;;;;4910976;29;19934;-85
2021/10/03 12:38:54;;;;;;;;;;;17.20;99.90;;;;;;4897121;29;19923;-84
2021/10/03 12:41:21;;;;;;;;;;;17.30;99.90;;;;;;4895219;29;19926;-85
2021/10/03 12:43:48;;;;;;;;;;;17.30;99.90;;;;;;4893055;29;19927;-85
2021/10/03 12:46:15;;;;;;;;;;;17.40;99.90;;;;;;4888562;29;19926;-87
2021/10/03 12:48:42;;;;;;;;;;;17.40;99.90;;;;;;4912913;29;20085;-86
2021/10/03 12:51:09;;;;;;;;;;;17.30;99.90;;;;;;4896680;29;20350;-85
2021/10/03 12:53:36;;;;;;;;;;;17.20;99.90;;;;;;4896992;29;19986;-86
2021/10/03 12:56:04;;;;;;;;;;;17.20;99.90;;;;;;4890331;29;19975;-83
2021/10/03 12:58:30;;;;;;;;;;;17.10;99.90;;;;;;4911768;29;19926;-85
2021/10/03 13:00:57;;;;;;;;;;;17.20;99.90;;;;;;4910535;29;20845;-84
2021/10/03 13:03:24;;;;;;;;;;;17.30;99.90;;;;;;4893331;29;20002;-86
2021/10/03 13:05:51;;;;;;;;;;;17.20;99.90;;;;;;4892901;29;20016;-85
2021/10/03 13:08:18;;;;;;;;;;;17.30;99.90;;;;;;4910634;29;19926;-84
2021/10/03 13:10:45;;;;;;;;;;;17.20;99.90;;;;;;4893789;29;20017;-84
2021/10/03 13:13:12;;;;;;;;;;;17.10;99.90;;;;;;4894165;29;19931;-83
2021/10/03 13:15:39;;;;;;;;;;;17.00;99.90;;;;;;4894558;29;19927;-85
2021/10/03 13:18:05;;;;;;;;;;;17.00;99.90;;;;;;4908771;29;19922;-83
2021/10/03 13:20:32;;;;;;;;;;;17.00;99.90;;;;;;4892612;29;20113;-86
2021/10/03 13:22:59;;;;;;;;;;;17.00;99.90;;;;;;4892454;29;20025;-84
2021/10/03 13:25:26;;;;;;;;;;;17.10;99.90;;;;;;4892470;29;19923;-83
2021/10/03 13:27:53;;;;;;;;;;;17.10;99.90;;;;;;4891642;29;19923;-85
2021/10/03 13:30:20;;;;;;;;;;;17.10;99.90;;;;;;4889816;29;20391;-85
2021/10/03 13:32:47;;;;;;;;;;;17.10;99.90;;;;;;4894576;29;19927;-85
2021/10/03 13:35:14;;;;;;;;;;;17.10;99.90;;;;;;4910152;29;19974;-84
2021/10/03 13:37:40;;;;;;;;;;;17.10;99.90;;;;;;4893712;29;19923;-86
2021/10/03 13:40:08;;;;;;;;;;;17.20;99.90;;;;;;4893878;29;19962;-85
2021/10/03 13:42:35;;;;;;;;;;;17.20;99.90;;;;;;4911463;29;19927;-85
2021/10/03 13:45:02;;;;;;;;;;;17.30;99.90;;;;;;4893215;29;20680;-83
2021/10/03 13:47:29;;;;;;;;;;;17.40;99.90;;;;;;4892881;29;19923;-85
2021/10/03 13:49:56;;;;;;;;;;;17.50;99.90;;;;;;4895805;29;19930;-87
2021/10/03 13:52:23;;;;;;;;;;;17.60;99.90;;;;;;4892986;29;20353;-85
2021/10/03 13:54:50;;;;;;;;;;;17.50;99.90;;;;;;4894408;29;19949;-89
2021/10/03 13:57:17;;;;;;;;;;;17.50;99.90;;;;;;4910601;29;19931;-85
2021/10/03 13:59:44;;;;;;;;;;;17.50;99.90;;;;;;4894894;29;19982;-86
2021/10/03 14:02:16;;;;;;;;;;;17.50;99.90;;;;;;4893333;29;20637;-85
2021/10/03 14:04:43;;;;;;;;;;;17.50;99.90;;;;;;4909241;29;19923;-88
2021/10/03 14:07:10;;;;;;;;;;;17.50;99.90;;;;;;4911553;29;19923;-87
2021/10/03 14:09:37;;;;;;;;;;;17.60;99.90;;;;;;4912662;29;19986;-86
2021/10/03 14:12:04;;;;;;;;;;;17.50;99.90;;;;;;4911405;29;20160;-87
2021/10/03 14:14:32;;;;;;;;;;;17.30;99.90;;;;;;4911703;29;20277;-86
2021/10/03 14:16:59;;;;;;;;;;;17.40;99.90;;;;;;4909353;29;19928;-85
2021/10/03 14:19:25;;;;;;;;;;;17.40;99.90;;;;;;4911904;29;19923;-87
2021/10/03 14:21:52;;;;;;;;;;;17.50;99.90;;;;;;4910602;29;20459;-87
2021/10/03 14:24:21;;;;;;;;;;;17.50;99.90;;;;;;4907762;29;19987;-84
2021/10/03 14:26:48;;;;;;;;;;;17.60;99.90;;;;;;4895886;29;19931;-88
2021/10/03 14:29:15;;;;;;;;;;;17.60;99.90;;;;;;4896633;29;20315;-88
2021/10/03 14:31:42;;;;;;;;;;;17.60;99.90;;;;;;4896990;29;20005;-86
2021/10/03 14:34:09;;;;;;;;;;;17.50;99.90;;;;;;4912087;29;19927;-84
2021/10/03 14:36:35;;;;;;;;;;;17.50;99.90;;;;;;4898929;29;19987;-84
2021/10/03 14:39:02;;;;;;;;;;;17.50;99.90;;;;;;4908886;29;19930;-86
2021/10/03 14:41:29;;;;;;;;;;;17.50;99.90;;;;;;4898481;29;19927;-88
2021/10/03 14:43:56;;;;;;;;;;;17.40;99.90;;;;;;4914670;29;19927;-88
2021/10/03 14:46:23;;;;;;;;;;;17.30;99.90;;;;;;4893680;29;19927;-88
2021/10/03 14:48:49;;;;;;;;;;;17.30;99.90;;;;;;4913476;29;20414;-88
2021/10/03 14:51:16;;;;;;;;;;;17.30;99.90;;;;;;4896911;29;20372;-89
2021/10/03 14:53:43;;;;;;;;;;;17.30;99.90;;;;;;4892364;29;19978;-87
2021/10/03 14:56:11;;;;;;;;;;;17.30;99.90;;;;;;4907729;29;20396;-88
2021/10/03 14:58:38;;;;;;;;;;;17.20;99.90;;;;;;4897657;29;19927;-90
2021/10/03 15:01:05;;;;;;;;;;;17.20;99.90;;;;;;4913511;29;19923;-88
2021/10/03 15:03:32;;;;;;;;;;;17.20;99.90;;;;;;4896851;29;20295;-89
2021/10/03 15:05:59;;;;;;;;;;;17.20;99.90;;;;;;4895719;29;19934;-88
2021/10/03 15:08:26;;;;;;;;;;;17.20;99.90;;;;;;4913236;29;20004;-88
2021/10/03 15:10:55;;;;;;;;;;;17.20;99.90;;;;;;4895244;29;19927;-87
2021/10/03 15:13:26;;;;;;;;;;;17.20;99.90;;;;;;4912480;29;19923;-88
2021/10/03 15:15:53;;;;;;;;;;;17.20;99.90;;;;;;4913505;29;19930;-90
2021/10/03 15:18:23;;;;;;;;;;;17.10;99.90;;;;;;4912164;29;20458;-89
2021/10/03 15:20:50;;;;;;;;;;;17.10;99.90;;;;;;4910047;29;19933;-89
2021/10/03 15:23:18;;;;;;;;;;;17.10;99.90;;;;;;4896657;29;19970;-88
2021/10/03 15:25:51;;;;;;;;;;;17.20;99.90;;;;;;4911524;29;19926;-88
2021/10/03 15:28:18;;;;;;;;;;;17.20;99.90;;;;;;4901550;29;19931;-89
2021/10/03 15:30:45;;;;;;;;;;;17.20;99.90;;;;;;4910214;29;19979;-88
2021/10/03 15:33:12;;;;;;;;;;;17.20;99.90;;;;;;4910588;29;19932;-89
2021/10/03 15:35:39;;;;;;;;;;;17.30;99.90;;;;;;4912280;29;20442;-88
2021/10/03 15:38:06;;;;;;;;;;;17.30;99.90;;;;;;4896042;29;19998;-85
2021/10/03 15:40:34;;;;;;;;;;;17.30;99.90;;;;;;4913301;29;20363;-86
2021/10/03 15:43:03;;;;;;;;;;;17.20;99.90;;;;;;4912422;29;20363;-87
2021/10/03 15:45:30;;;;;;;;;;;17.10;99.90;;;;;;4905065;29;19979;-88
2021/10/03 15:47:57;;;;;;;;;;;17.10;99.90;;;;;;4911031;29;19926;-88
2021/10/03 15:50:24;;;;;;;;;;;17.00;99.90;;;;;;4912302;29;19927;-88
2021/10/03 15:53:04;;;;;;;;;;;17.00;99.90;;;;;;4911484;29;19927;-89
2021/10/03 15:55:30;;;;;;;;;;;17.00;99.90;;;;;;4913182;29;19983;-86
2021/10/03 15:57:57;;;;;;;;;;;17.00;99.90;;;;;;4896265;29;19924;-89
2021/10/03 16:00:24;;;;;;;;;;;16.90;99.90;;;;;;4910279;29;20384;-86
2021/10/03 16:02:51;;;;;;;;;;;16.90;99.90;;;;;;4910063;29;20299;-86
2021/10/03 16:05:18;;;;;;;;;;;16.90;99.90;;;;;;4906489;29;19928;-87
2021/10/03 16:07:45;;;;;;;;;;;16.90;99.90;;;;;;4910572;29;19927;-86
2021/10/03 16:10:12;;;;;;;;;;;16.90;99.90;;;;;;4902422;29;19923;-86
2021/10/03 16:12:39;;;;;;;;;;;16.90;99.90;;;;;;4905635;29;19927;-87
2021/10/03 16:15:06;;;;;;;;;;;16.90;99.90;;;;;;4903560;29;19931;-85
2021/10/03 16:17:32;;;;;;;;;;;17.00;99.90;;;;;;4900631;29;20026;-86
2021/10/03 16:20:00;;;;;;;;;;;17.00;99.90;;;;;;4910318;29;19931;-87
2021/10/03 16:22:27;;;;;;;;;;;16.90;99.90;;;;;;4892967;29;20348;-86
2021/10/03 16:24:53;;;;;;;;;;;16.90;99.90;;;;;;4909591;29;19923;-86
2021/10/03 16:27:22;;;;;;;;;;;16.90;99.90;;;;;;4907153;29;19982;-86
2021/10/03 16:29:49;;;;;;;;;;;16.80;99.90;;;;;;4910251;29;19930;-87
2021/10/03 16:32:17;;;;;;;;;;;16.80;99.90;;;;;;4891030;29;20036;-87
2021/10/03 16:34:44;;;;;;;;;;;16.70;99.90;;;;;;4894966;29;19922;-86
2021/10/03 16:37:11;;;;;;;;;;;16.60;99.90;;;;;;4893293;29;19935;-86
2021/10/03 16:39:38;;;;;;;;;;;16.50;99.90;;;;;;4897022;29;20499;-86
2021/10/03 16:42:06;;;;;;;;;;;16.40;99.90;;;;;;4896613;29;20547;-88
2021/10/03 16:44:32;;;;;;;;;;;16.40;99.90;;;;;;4914845;29;19927;-87
2021/10/03 16:47:00;;;;;;;;;;;16.30;99.90;;;;;;4895508;29;20447;-88
2021/10/03 16:49:28;;;;;;;;;;;16.30;99.90;;;;;;4914756;29;19927;-87
2021/10/03 16:51:55;;;;;;;;;;;16.30;99.90;;;;;;4905774;29;20428;-91
2021/10/03 16:54:22;;;;;;;;;;;16.20;99.90;;;;;;4909025;29;19933;-90
2021/10/03 16:56:49;;;;;;;;;;;16.20;99.90;;;;;;4913834;29;19955;-88
2021/10/03 16:59:16;;;;;;;;;;;16.10;99.90;;;;;;4896747;29;19923;-89
2021/10/03 17:01:43;;;;;;;;;;;16.10;99.90;;;;;;4896056;29;20629;-88
2021/10/03 17:04:10;;;;;;;;;;;16.00;99.90;;;;;;4896024;29;19922;-86
2021/10/03 17:06:38;;;;;;;;;;;15.90;99.90;;;;;;4898091;29;19939;-88
2021/10/03 17:09:05;;;;;;;;;;;15.90;99.90;;;;;;4912409;29;19926;-88
2021/10/03 17:11:32;;;;;;;;;;;15.80;99.90;;;;;;4892542;29;19939;-86
2021/10/03 17:13:58;;;;;;;;;;;15.80;99.90;;;;;;4913996;29;19983;-89
2021/10/03 17:16:25;;;;;;;;;;;15.70;99.90;;;;;;4897775;29;19930;-89
2021/10/03 17:18:52;;;;;;;;;;;15.70;99.90;;;;;;4915408;29;19927;-89
2021/10/03 17:21:19;;;;;;;;;;;15.60;99.90;;;;;;4897730;29;19931;-89
2021/10/03 17:23:46;;;;;;;;;;;15.60;99.90;;;;;;4898460;29;20005;-88
2021/10/03 17:26:13;;;;;;;;;;;15.60;99.90;;;;;;4892524;29;19970;-88
2021/10/03 17:28:40;;;;;;;;;;;15.50;99.90;;;;;;4915282;29;19934;-89
2021/10/03 17:31:07;;;;;;;;;;;15.50;99.90;;;;;;4900098;29;19927;-90
2021/10/03 17:33:35;;;;;;;;;;;15.50;99.90;;;;;;4913825;29;19927;-89
2021/10/03 17:36:06;;;;;;;;;;;15.40;99.90;;;;;;4910978;29;19967;-89
2021/10/03 17:38:33;;;;;;;;;;;15.30;99.90;;;;;;4912917;29;19974;-89
2021/10/03 17:41:02;;;;;;;;;;;15.30;99.90;;;;;;4896210;29;19934;-89
2021/10/03 17:43:31;;;;;;;;;;;15.20;99.90;;;;;;4911265;29;19927;-89
2021/10/03 17:45:58;;;;;;;;;;;15.20;99.90;;;;;;4915242;29;19928;-90
2021/10/03 17:48:25;;;;;;;;;;;15.10;99.90;;;;;;4897301;29;19934;-89
2021/10/03 17:50:52;;;;;;;;;;;15.10;99.90;;;;;;4910888;29;19930;-89
2021/10/03 17:53:18;;;;;;;;;;;15.00;99.90;;;;;;4893303;29;19939;-90
2021/10/03 17:55:50;;;;;;;;;;;15.00;99.90;;;;;;4897704;29;19950;-88
2021/10/03 17:58:17;;;;;;;;;;;14.90;99.90;;;;;;4900704;29;19931;-91
2021/10/03 18:00:44;;;;;;;;;;;14.90;99.90;;;;;;4895875;29;19927;-90
2021/10/03 18:03:12;;;;;;;;;;;14.80;99.90;;;;;;4895926;29;20014;-88
2021/10/03 18:05:39;;;;;;;;;;;14.80;99.90;;;;;;4913419;29;19938;-90
2021/10/03 18:08:06;;;;;;;;;;;14.70;99.90;;;;;;4909208;29;20337;-88
2021/10/03 18:10:33;;;;;;;;;;;14.70;99.90;;;;;;4894259;29;19924;-90
2021/10/03 18:13:01;;;;;;;;;;;14.60;99.90;;;;;;4912678;29;20463;-90
2021/10/03 18:15:28;;;;;;;;;;;14.60;99.90;;;;;;4914060;29;19931;-89
2021/10/03 18:17:56;;;;;;;;;;;14.50;99.90;;;;;;4913268;29;19931;-85
2021/10/03 18:20:23;;;;;;;;;;;14.40;99.90;;;;;;4908229;29;19928;-84
2021/10/03 18:22:50;;;;;;;;;;;14.40;99.90;;;;;;4892893;29;19961;-85
2021/10/03 18:25:17;;;;;;;;;;;14.30;99.90;;;;;;4905350;29;19935;-86
2021/10/03 18:27:44;;;;;;;;;;;14.30;99.90;;;;;;4893782;29;19926;-85
2021/10/03 18:30:12;;;;;;;;;;;14.20;99.90;;;;;;4905570;29;20053;-85
2021/10/03 18:32:40;;;;;;;;;;;14.20;99.90;;;;;;4907794;29;19931;-86
2021/10/03 18:35:07;;;;;;;;;;;14.20;99.90;;;;;;4910091;29;19927;-85
2021/10/03 18:37:34;;;;;;;;;;;14.10;99.90;;;;;;4895528;29;20392;-85
2021/10/03 18:40:01;;;;;;;;;;;14.10;99.90;;;;;;4889372;29;19923;-84
2021/10/03 18:42:28;;;;;;;;;;;14.00;99.90;;;;;;4894065;29;19927;-85
2021/10/03 18:44:54;;;;;;;;;;;13.90;99.90;;;;;;4910287;29;20403;-85
2021/10/03 18:47:21;;;;;;;;;;;13.90;99.90;;;;;;4889985;29;19930;-85
2021/10/03 18:49:48;;;;;;;;;;;13.80;99.90;;;;;;4894581;29;19927;-84
2021/10/03 18:52:15;;;;;;;;;;;13.80;99.90;;;;;;4888372;29;20416;-84
2021/10/03 18:54:42;;;;;;;;;;;13.80;99.90;;;;;;4888982;29;19926;-84
2021/10/03 18:57:09;;;;;;;;;;;13.70;99.90;;;;;;4890760;29;20688;-84
2021/10/03 18:59:35;;;;;;;;;;;13.70;99.90;;;;;;4904769;29;19935;-84
2021/10/03 19:02:03;;;;;;;;;;;13.70;99.90;;;;;;4905428;29;19970;-84
2021/10/03 19:04:31;;;;;;;;;;;13.60;99.90;;;;;;4910464;29;19923;-86
2021/10/03 19:07:01;;;;;;;;;;;13.60;99.90;;;;;;4909124;29;19934;-85
2021/10/03 19:09:33;;;;;;;;;;;13.50;99.90;;;;;;4888993;29;19923;-87
2021/10/03 19:12:00;;;;;;;;;;;13.50;99.90;;;;;;4907331;29;19931;-86
2021/10/03 19:14:27;;;;;;;;;;;13.50;99.90;;;;;;4893818;29;19990;-86
2021/10/03 19:16:54;;;;;;;;;;;13.50;99.90;;;;;;4894924;29;19970;-86
2021/10/03 19:19:21;;;;;;;;;;;13.40;99.90;;;;;;4909724;29;19942;-87
2021/10/03 19:21:48;;;;;;;;;;;13.40;99.90;;;;;;4905153;29;19923;-86
2021/10/03 19:24:15;;;;;;;;;;;13.30;99.90;;;;;;4907994;29;19986;-85
2021/10/03 19:26:42;;;;;;;;;;;13.30;99.90;;;;;;4905980;29;19927;-84
2021/10/03 19:29:09;;;;;;;;;;;13.20;99.90;;;;;;4904669;29;20410;-85
2021/10/03 19:31:38;;;;;;;;;;;13.20;99.90;;;;;;4888177;29;19978;-88
2021/10/03 19:34:06;;;;;;;;;;;13.20;99.90;;;;;;4891925;29;19982;-84
2021/10/03 19:36:32;;;;;;;;;;;13.20;99.90;;;;;;4907614;29;20299;-87
2021/10/03 19:38:59;;;;;;;;;;;13.20;99.90;;;;;;4892712;29;19930;-89
2021/10/03 19:41:28;;;;;;;;;;;13.10;99.90;;;;;;4892115;29;20414;-88
2021/10/03 19:43:56;;;;;;;;;;;13.10;99.90;;;;;;4891139;29;19927;-85
2021/10/03 19:46:22;;;;;;;;;;;13.10;99.90;;;;;;4889718;29;20411;-86
2021/10/03 19:48:49;;;;;;;;;;;13.00;99.90;;;;;;4893863;29;19923;-85
2021/10/03 19:51:17;;;;;;;;;;;13.00;99.90;;;;;;4889298;29;19927;-86
2021/10/03 19:53:45;;;;;;;;;;;13.00;99.90;;;;;;4906519;29;20355;-85
2021/10/03 19:56:13;;;;;;;;;;;13.00;99.90;;;;;;4902286;29;19923;-85
2021/10/03 19:58:42;;;;;;;;;;;12.90;99.90;;;;;;4906001;29;19931;-85
2021/10/03 20:01:09;;;;;;;;;;;12.90;99.90;;;;;;4903597;29;19981;-85
2021/10/03 20:03:36;;;;;;;;;;;12.90;99.90;;;;;;4891323;29;19927;-86
2021/10/03 20:06:04;;;;;;;;;;;12.90;99.90;;;;;;4907354;29;20410;-86